createdAt,value
2023-03-06T00:00:26.518Z,1000.36
2023-03-06T00:01:26.387Z,1000.37
2023-03-06T00:02:26.380Z,1000.39
2023-03-06T00:03:26.400Z,1000.32
2023-03-06T00:04:26.354Z,1000.35
2023-03-06T00:05:26.398Z,1000.35
2023-03-06T00:06:26.384Z,1000.39
2023-03-06T00:07:26.357Z,1000.31
2023-03-06T00:08:26.319Z,1000.32
2023-03-06T00:09:26.304Z,1000.34
2023-03-06T00:10:26.334Z,1000.36
2023-03-06T00:11:26.274Z,1000.33
2023-03-06T00:12:26.319Z,1000.33
2023-03-06T00:13:26.309Z,1000.37
2023-03-06T00:14:26.281Z,1000.32
2023-03-06T00:15:26.273Z,1000.35
2023-03-06T00:16:26.251Z,1000.28
2023-03-06T00:17:26.210Z,1000.29
2023-03-06T00:18:26.220Z,1000.30
2023-03-06T00:19:26.194Z,1000.28
2023-03-06T00:20:26.301Z,1000.30
2023-03-06T00:21:26.179Z,1000.29
2023-03-06T00:22:26.179Z,1000.29
2023-03-06T00:23:26.139Z,1000.27
2023-03-06T00:24:26.125Z,1000.23
2023-03-06T00:25:26.544Z,1000.27
2023-03-06T00:26:26.091Z,1000.22
2023-03-06T00:27:26.169Z,1000.25
2023-03-06T00:28:26.974Z,1000.23
2023-03-06T00:29:26.063Z,1000.23
2023-03-06T00:30:26.132Z,1000.21
2023-03-06T00:31:26.071Z,1000.18
2023-03-06T00:32:26.069Z,1000.22
2023-03-06T00:33:26.012Z,1000.22
2023-03-06T00:34:26.023Z,1000.16
2023-03-06T00:35:26.085Z,1000.17
2023-03-06T00:36:25.997Z,1000.21
2023-03-06T00:37:26.016Z,1000.14
2023-03-06T00:38:26.020Z,1000.14
2023-03-06T00:39:25.970Z,1000.14
2023-03-06T00:40:26.008Z,1000.15
2023-03-06T00:41:25.943Z,1000.14
2023-03-06T00:42:25.937Z,1000.11
2023-03-06T00:43:25.925Z,1000.09
2023-03-06T00:44:26.443Z,1000.08
2023-03-06T00:45:25.964Z,1000.13
2023-03-06T00:46:25.898Z,1000.08
2023-03-06T00:47:25.886Z,1000.10
2023-03-06T00:48:25.974Z,1000.09
2023-03-06T00:49:25.833Z,1000.10
2023-03-06T00:50:25.856Z,1000.04
2023-03-06T00:51:25.838Z,1000.06
2023-03-06T00:52:25.814Z,1000.01
2023-03-06T00:53:25.867Z,1000.03
2023-03-06T00:54:25.795Z,999.95
2023-03-06T00:55:25.836Z,1000.01
2023-03-06T00:56:25.796Z,1000.02
2023-03-06T00:57:25.767Z,999.97
2023-03-06T00:58:25.745Z,999.96
2023-03-06T00:59:25.765Z,999.95
2023-03-06T01:00:25.771Z,999.98
2023-03-06T01:01:25.717Z,999.94
2023-03-06T01:02:25.802Z,999.96
2023-03-06T01:03:25.718Z,999.93
2023-03-06T01:04:25.679Z,999.93
2023-03-06T01:05:25.725Z,999.92
2023-03-06T01:06:25.683Z,999.92
2023-03-06T01:07:25.647Z,999.91
2023-03-06T01:08:25.664Z,999.87
2023-03-06T01:09:25.620Z,999.89
2023-03-06T01:10:25.634Z,999.90
2023-03-06T01:11:25.624Z,999.86
2023-03-06T01:12:25.587Z,999.84
2023-03-06T01:13:25.634Z,999.83
2023-03-06T01:14:25.592Z,999.83
2023-03-06T01:15:25.618Z,999.78
2023-03-06T01:16:25.617Z,999.78
2023-03-06T01:17:25.554Z,999.80
2023-03-06T01:18:25.521Z,999.79
2023-03-06T01:19:25.508Z,999.82
2023-03-06T01:20:25.556Z,999.79
2023-03-06T01:21:25.504Z,999.76
2023-03-06T01:22:25.494Z,999.74
2023-03-06T01:23:25.529Z,999.72
2023-03-06T01:24:25.515Z,999.73
2023-03-06T01:25:25.435Z,999.71
2023-03-06T01:26:25.411Z,999.69
2023-03-06T01:27:25.400Z,999.71
2023-03-06T01:28:25.385Z,999.67
2023-03-06T01:29:25.392Z,999.70
2023-03-06T01:30:25.379Z,999.67
2023-03-06T01:31:25.422Z,999.67
2023-03-06T01:32:25.398Z,999.64
2023-03-06T01:33:25.328Z,999.61
2023-03-06T01:34:25.330Z,999.62
2023-03-06T01:35:25.357Z,999.62
2023-03-06T01:36:25.296Z,999.63
2023-03-06T01:37:25.294Z,999.62
2023-03-06T01:38:25.329Z,999.59
2023-03-06T01:39:25.271Z,999.56
2023-03-06T01:40:25.267Z,999.59
2023-03-06T01:41:25.257Z,999.57
2023-03-06T01:42:25.230Z,999.63
2023-03-06T01:43:25.234Z,999.64
2023-03-06T01:44:25.201Z,999.57
2023-03-06T01:45:25.243Z,999.58
2023-03-06T01:46:25.217Z,999.57
2023-03-06T01:47:25.184Z,999.59
2023-03-06T01:48:25.182Z,999.54
2023-03-06T01:49:25.195Z,999.56
2023-03-06T01:50:25.173Z,999.57
2023-03-06T01:51:25.145Z,999.59
2023-03-06T01:52:25.123Z,999.54
2023-03-06T01:53:25.110Z,999.53
2023-03-06T01:54:25.129Z,999.52
2023-03-06T01:55:25.117Z,999.49
2023-03-06T01:56:25.081Z,999.42
2023-03-06T01:57:25.073Z,999.43
2023-03-06T01:58:25.095Z,999.44
2023-03-06T01:59:25.044Z,999.40
2023-03-06T02:00:25.056Z,999.45
2023-03-06T02:01:25.102Z,999.42
2023-03-06T02:02:25.070Z,999.42
2023-03-06T02:03:25.003Z,999.44
2023-03-06T02:04:24.989Z,999.42
2023-03-06T02:05:25.012Z,999.40
2023-03-06T02:06:24.961Z,999.41
2023-03-06T02:07:24.954Z,999.36
2023-03-06T02:08:24.959Z,999.31
2023-03-06T02:09:24.931Z,999.36
2023-03-06T02:10:24.940Z,999.31
2023-03-06T02:11:24.957Z,999.29
2023-03-06T02:12:24.904Z,999.32
2023-03-06T02:13:24.892Z,999.32
2023-03-06T02:14:24.874Z,999.29
2023-03-06T02:15:24.900Z,999.27
2023-03-06T02:16:24.904Z,999.26
2023-03-06T02:17:24.843Z,999.27
2023-03-06T02:18:24.828Z,999.25
2023-03-06T02:19:24.818Z,999.27
2023-03-06T02:20:24.830Z,999.26
2023-03-06T02:21:24.835Z,999.23
2023-03-06T02:22:24.782Z,999.21
2023-03-06T02:23:24.774Z,999.15
2023-03-06T02:24:24.761Z,999.14
2023-03-06T02:25:24.773Z,999.11
2023-03-06T02:26:24.756Z,999.14
2023-03-06T02:27:24.751Z,999.10
2023-03-06T02:28:24.711Z,999.09
2023-03-06T02:29:24.711Z,999.12
2023-03-06T02:30:24.720Z,999.14
2023-03-06T02:31:24.680Z,999.14
2023-03-06T02:32:24.720Z,999.12
2023-03-06T02:33:24.665Z,999.11
2023-03-06T02:34:24.669Z,999.10
2023-03-06T02:35:24.694Z,999.10
2023-03-06T02:36:24.633Z,999.05
2023-03-06T02:37:24.615Z,999.08
2023-03-06T02:38:24.605Z,999.06
2023-03-06T02:39:24.593Z,999.03
2023-03-06T02:40:24.606Z,999.02
2023-03-06T02:41:24.582Z,999.02
2023-03-06T02:42:24.572Z,999.00
2023-03-06T02:43:24.551Z,998.94
2023-03-06T02:44:24.529Z,998.89
2023-03-06T02:45:24.554Z,998.86
2023-03-06T02:46:24.627Z,998.76
2023-03-06T02:47:24.501Z,998.68
2023-03-06T02:48:24.501Z,998.61
2023-03-06T02:49:26.428Z,998.59
2023-03-06T02:50:24.502Z,998.59
2023-03-06T02:51:24.456Z,998.54
2023-03-06T02:52:24.442Z,998.50
2023-03-06T02:53:24.443Z,998.49
2023-03-06T02:54:24.415Z,998.46
2023-03-06T02:55:24.429Z,998.48
2023-03-06T02:56:24.408Z,998.44
2023-03-06T02:57:24.392Z,998.44
2023-03-06T02:58:24.374Z,998.40
2023-03-06T02:59:24.362Z,998.41
2023-03-06T03:00:24.394Z,998.42
2023-03-06T03:01:24.429Z,998.41
2023-03-06T03:02:24.321Z,998.39
2023-03-06T03:03:24.316Z,998.38
2023-03-06T03:04:24.328Z,998.35
2023-03-06T03:05:24.326Z,998.33
2023-03-06T03:06:24.279Z,998.29
2023-03-06T03:07:24.275Z,998.28
2023-03-06T03:08:24.264Z,998.29
2023-03-06T03:09:24.252Z,998.32
2023-03-06T03:10:24.256Z,998.30
2023-03-06T03:11:24.224Z,998.29
2023-03-06T03:12:24.224Z,998.41
2023-03-06T03:13:24.203Z,998.41
2023-03-06T03:14:24.196Z,998.40
2023-03-06T03:15:24.201Z,998.49
2023-03-06T03:16:24.169Z,998.47
2023-03-06T03:17:24.164Z,998.51
2023-03-06T03:18:24.146Z,998.53
2023-03-06T03:19:24.133Z,998.48
2023-03-06T03:20:24.178Z,998.47
2023-03-06T03:21:24.112Z,998.46
2023-03-06T03:22:24.104Z,998.46
2023-03-06T03:23:24.094Z,998.45
2023-03-06T03:24:24.141Z,998.43
2023-03-06T03:25:24.098Z,998.46
2023-03-06T03:26:24.054Z,998.42
2023-03-06T03:27:24.057Z,998.45
2023-03-06T03:28:24.035Z,998.49
2023-03-06T03:29:24.037Z,998.47
2023-03-06T03:30:24.046Z,998.51
2023-03-06T03:31:24.060Z,998.51
2023-03-06T03:32:24.039Z,998.46
2023-03-06T03:33:23.988Z,998.52
2023-03-06T03:34:23.984Z,998.49
2023-03-06T03:35:24.041Z,998.46
2023-03-06T03:36:23.953Z,998.45
2023-03-06T03:37:23.945Z,998.44
2023-03-06T03:38:23.925Z,998.45
2023-03-06T03:39:23.920Z,998.47
2023-03-06T03:40:23.925Z,998.46
2023-03-06T03:41:23.909Z,998.49
2023-03-06T03:42:23.942Z,998.46
2023-03-06T03:43:23.871Z,998.51
2023-03-06T03:44:23.858Z,998.51
2023-03-06T03:45:23.878Z,998.49
2023-03-06T03:46:23.884Z,998.46
2023-03-06T03:47:23.827Z,998.45
2023-03-06T03:48:23.822Z,998.43
2023-03-06T03:49:23.812Z,998.40
2023-03-06T03:50:23.824Z,998.45
2023-03-06T03:51:23.781Z,998.44
2023-03-06T03:52:23.785Z,998.40
2023-03-06T03:53:23.775Z,998.40
2023-03-06T03:54:23.752Z,998.40
2023-03-06T03:55:23.754Z,998.39
2023-03-06T03:56:23.767Z,998.40
2023-03-06T03:57:23.714Z,998.38
2023-03-06T03:58:23.702Z,998.35
2023-03-06T03:59:23.689Z,998.35
2023-03-06T04:00:23.729Z,998.37
2023-03-06T04:01:23.676Z,998.34
2023-03-06T04:02:23.798Z,998.30
2023-03-06T04:03:23.637Z,998.30
2023-03-06T04:04:23.639Z,998.33
2023-03-06T04:05:23.651Z,998.37
2023-03-06T04:06:23.610Z,998.31
2023-03-06T04:07:23.605Z,998.30
2023-03-06T04:08:23.615Z,998.28
2023-03-06T04:09:23.574Z,998.30
2023-03-06T04:10:23.597Z,998.27
2023-03-06T04:11:23.553Z,998.29
2023-03-06T04:12:23.542Z,998.25
2023-03-06T04:13:23.551Z,998.24
2023-03-06T04:14:23.524Z,998.17
2023-03-06T04:15:23.531Z,998.21
2023-03-06T04:16:23.539Z,998.17
2023-03-06T04:17:23.486Z,998.18
2023-03-06T04:18:23.482Z,998.15
2023-03-06T04:19:23.466Z,998.10
2023-03-06T04:20:23.511Z,998.11
2023-03-06T04:21:23.449Z,998.08
2023-03-06T04:22:23.431Z,998.09
2023-03-06T04:23:23.426Z,998.09
2023-03-06T04:24:23.412Z,998.09
2023-03-06T04:25:23.415Z,998.07
2023-03-06T04:26:23.398Z,998.09
2023-03-06T04:27:23.369Z,998.07
2023-03-06T04:28:23.378Z,998.08
2023-03-06T04:29:23.349Z,998.09
2023-03-06T04:30:23.370Z,998.08
2023-03-06T04:31:23.401Z,998.03
2023-03-06T04:32:23.378Z,998.06
2023-03-06T04:33:23.304Z,998.11
2023-03-06T04:34:23.304Z,998.06
2023-03-06T04:35:23.332Z,998.06
2023-03-06T04:36:23.276Z,998.02
2023-03-06T04:37:23.274Z,998.01
2023-03-06T04:38:23.265Z,997.99
2023-03-06T04:39:23.249Z,998.00
2023-03-06T04:40:23.256Z,997.97
2023-03-06T04:41:23.224Z,997.93
2023-03-06T04:42:23.208Z,997.95
2023-03-06T04:43:23.207Z,997.89
2023-03-06T04:44:23.187Z,997.92
2023-03-06T04:45:23.238Z,997.92
2023-03-06T04:46:23.164Z,997.93
2023-03-06T04:47:23.166Z,997.89
2023-03-06T04:48:23.140Z,997.86
2023-03-06T04:49:23.142Z,997.86
2023-03-06T04:50:23.146Z,997.83
2023-03-06T04:51:23.118Z,997.77
2023-03-06T04:52:23.097Z,997.77
2023-03-06T04:53:23.098Z,997.84
2023-03-06T04:54:23.092Z,997.86
2023-03-06T04:55:23.104Z,997.83
2023-03-06T04:56:23.054Z,997.83
2023-03-06T04:57:23.046Z,997.82
2023-03-06T04:58:23.032Z,997.85
2023-03-06T04:59:23.029Z,997.79
2023-03-06T05:00:23.037Z,997.78
2023-03-06T05:01:23.057Z,997.86
2023-03-06T05:02:23.034Z,997.81
2023-03-06T05:03:22.985Z,997.77
2023-03-06T05:04:22.980Z,997.79
2023-03-06T05:05:22.990Z,997.78
2023-03-06T05:06:22.933Z,997.70
2023-03-06T05:07:22.942Z,997.74
2023-03-06T05:08:22.925Z,997.75
2023-03-06T05:09:22.949Z,997.78
2023-03-06T05:10:22.913Z,997.80
2023-03-06T05:11:22.887Z,997.77
2023-03-06T05:12:22.874Z,997.71
2023-03-06T05:13:22.861Z,997.75
2023-03-06T05:14:22.854Z,997.70
2023-03-06T05:15:22.873Z,997.74
2023-03-06T05:16:22.839Z,997.74
2023-03-06T05:17:22.822Z,997.66
2023-03-06T05:18:22.814Z,997.63
2023-03-06T05:19:22.792Z,997.69
2023-03-06T05:20:22.805Z,997.64
2023-03-06T05:21:22.777Z,997.61
2023-03-06T05:22:22.756Z,997.64
2023-03-06T05:23:22.749Z,997.63
2023-03-06T05:24:22.734Z,997.60
2023-03-06T05:25:22.745Z,997.61
2023-03-06T05:26:22.709Z,997.60
2023-03-06T05:27:22.747Z,997.59
2023-03-06T05:28:22.694Z,997.62
2023-03-06T05:29:22.719Z,997.65
2023-03-06T05:30:22.683Z,997.61
2023-03-06T05:31:22.716Z,997.64
2023-03-06T05:32:22.705Z,997.65
2023-03-06T05:33:22.638Z,997.63
2023-03-06T05:34:22.626Z,997.63
2023-03-06T05:35:22.664Z,997.61
2023-03-06T05:36:22.600Z,997.60
2023-03-06T05:37:22.599Z,997.63
2023-03-06T05:38:22.582Z,997.59
2023-03-06T05:39:22.576Z,997.59
2023-03-06T05:40:22.582Z,997.56
2023-03-06T05:41:22.559Z,997.53
2023-03-06T05:42:22.545Z,997.56
2023-03-06T05:43:22.530Z,997.52
2023-03-06T05:44:22.555Z,997.53
2023-03-06T05:45:22.531Z,997.58
2023-03-06T05:46:22.566Z,997.54
2023-03-06T05:47:22.531Z,997.59
2023-03-06T05:48:22.469Z,997.53
2023-03-06T05:49:22.468Z,997.52
2023-03-06T05:50:22.468Z,997.50
2023-03-06T05:51:22.437Z,997.50
2023-03-06T05:52:22.432Z,997.50
2023-03-06T05:53:22.420Z,997.51
2023-03-06T05:54:22.404Z,997.44
2023-03-06T05:55:22.418Z,997.43
2023-03-06T05:56:22.379Z,997.48
2023-03-06T05:57:22.377Z,997.47
2023-03-06T05:58:22.354Z,997.46
2023-03-06T05:59:22.361Z,997.44
2023-03-06T06:00:22.355Z,997.40
2023-03-06T06:01:22.323Z,997.42
2023-03-06T06:02:22.339Z,997.44
2023-03-06T06:03:22.317Z,997.43
2023-03-06T06:04:22.292Z,997.37
2023-03-06T06:05:22.315Z,997.40
2023-03-06T06:06:22.261Z,997.42
2023-03-06T06:07:22.258Z,997.40
2023-03-06T06:08:22.245Z,997.39
2023-03-06T06:09:22.234Z,997.38
2023-03-06T06:10:22.253Z,997.38
2023-03-06T06:11:22.216Z,997.37
2023-03-06T06:12:22.203Z,997.34
2023-03-06T06:13:22.195Z,997.35
2023-03-06T06:14:22.194Z,997.37
2023-03-06T06:15:22.196Z,997.32
2023-03-06T06:16:22.149Z,997.30
2023-03-06T06:17:22.152Z,997.27
2023-03-06T06:18:22.123Z,997.29
2023-03-06T06:19:22.126Z,997.29
2023-03-06T06:20:22.128Z,997.30
2023-03-06T06:21:22.126Z,997.25
2023-03-06T06:22:22.108Z,997.29
2023-03-06T06:23:22.084Z,997.26
2023-03-06T06:24:22.108Z,997.27
2023-03-06T06:25:22.077Z,997.28
2023-03-06T06:26:22.051Z,997.24
2023-03-06T06:27:22.055Z,997.26
2023-03-06T06:28:22.052Z,997.24
2023-03-06T06:29:22.011Z,997.25
2023-03-06T06:30:22.045Z,997.25
2023-03-06T06:31:22.024Z,997.20
2023-03-06T06:32:22.008Z,997.26
2023-03-06T06:33:21.966Z,997.28
2023-03-06T06:34:21.948Z,997.32
2023-03-06T06:35:22.005Z,997.28
2023-03-06T06:36:21.936Z,997.36
2023-03-06T06:37:21.932Z,997.31
2023-03-06T06:38:21.904Z,997.33
2023-03-06T06:39:21.900Z,997.31
2023-03-06T06:40:21.906Z,997.31
2023-03-06T06:42:32.957Z,997.33
2023-03-06T06:43:21.871Z,997.32
2023-03-06T06:44:21.835Z,997.33
2023-03-06T06:45:22.041Z,997.29
2023-03-06T06:47:09.323Z,997.33
2023-03-06T06:47:26.033Z,997.32
2023-03-06T06:48:21.870Z,997.32
2023-03-06T06:49:21.788Z,997.37
2023-03-06T06:50:21.776Z,997.36
2023-03-06T06:51:21.795Z,997.38
2023-03-06T06:52:21.767Z,997.33
2023-03-06T06:53:21.748Z,997.34
2023-03-06T06:54:21.725Z,997.31
2023-03-06T06:55:21.723Z,997.32
2023-03-06T06:56:21.749Z,997.36
2023-03-06T06:57:21.727Z,997.36
2023-03-06T06:58:21.683Z,997.38
2023-03-06T06:59:21.675Z,997.38
2023-03-06T07:00:21.672Z,997.36
2023-03-06T07:01:21.658Z,997.38
2023-03-06T07:02:22.121Z,997.35
2023-03-06T07:03:21.628Z,997.31
2023-03-06T07:04:21.620Z,997.38
2023-03-06T07:05:22.183Z,997.37
2023-03-06T07:06:21.588Z,997.35
2023-03-06T07:07:21.592Z,997.34
2023-03-06T07:08:21.594Z,997.31
2023-03-06T07:09:21.562Z,997.33
2023-03-06T07:10:21.553Z,997.31
2023-03-06T07:11:21.544Z,997.28
2023-03-06T07:12:21.518Z,997.32
2023-03-06T07:13:21.546Z,997.31
2023-03-06T07:14:21.496Z,997.29
2023-03-06T07:15:21.494Z,997.32
2023-03-06T07:16:21.530Z,997.36
2023-03-06T07:17:21.476Z,997.34
2023-03-06T07:18:21.450Z,997.34
2023-03-06T07:19:21.476Z,997.35
2023-03-06T07:20:21.445Z,997.37
2023-03-06T07:21:21.426Z,997.35
2023-03-06T07:22:21.426Z,997.37
2023-03-06T07:23:21.400Z,997.39
2023-03-06T07:24:21.386Z,997.41
2023-03-06T07:25:21.411Z,997.38
2023-03-06T07:26:21.391Z,997.38
2023-03-06T07:27:21.357Z,997.42
2023-03-06T07:28:21.385Z,997.36
2023-03-06T07:29:21.342Z,997.35
2023-03-06T07:30:21.317Z,997.39
2023-03-06T07:31:21.437Z,997.41
2023-03-06T07:32:21.379Z,997.43
2023-03-06T07:33:21.283Z,997.40
2023-03-06T07:34:21.312Z,997.39
2023-03-06T07:35:21.263Z,997.45
2023-03-06T07:36:21.247Z,997.43
2023-03-06T07:37:21.278Z,997.39
2023-03-06T07:38:21.229Z,997.41
2023-03-06T07:39:21.248Z,997.40
2023-03-06T07:40:21.220Z,997.40
2023-03-06T07:41:22.623Z,997.37
2023-03-06T07:42:21.186Z,997.39
2023-03-06T07:43:21.221Z,997.40
2023-03-06T07:44:21.169Z,997.44
2023-03-06T07:45:21.155Z,997.42
2023-03-06T07:46:21.187Z,997.50
2023-03-06T07:47:21.131Z,997.47
2023-03-06T07:48:21.120Z,997.45
2023-03-06T07:49:21.714Z,997.45
2023-03-06T07:50:21.114Z,997.45
2023-03-06T07:51:21.109Z,997.44
2023-03-06T07:52:21.079Z,997.46
2023-03-06T07:53:21.073Z,997.44
2023-03-06T07:54:21.077Z,997.42
2023-03-06T07:55:21.083Z,997.46
2023-03-06T07:56:21.041Z,997.46
2023-03-06T07:57:21.021Z,997.43
2023-03-06T07:58:21.014Z,997.48
2023-03-06T07:59:21.000Z,997.45
2023-03-06T08:00:20.988Z,997.48
2023-03-06T08:01:21.021Z,997.49
2023-03-06T08:02:20.969Z,997.52
2023-03-06T08:03:20.961Z,997.53
2023-03-06T08:04:20.949Z,997.52
2023-03-06T08:05:20.950Z,997.52
2023-03-06T08:06:21.032Z,997.56
2023-03-06T08:07:20.939Z,997.59
2023-03-06T08:08:20.896Z,997.55
2023-03-06T08:09:20.894Z,997.57
2023-03-06T08:10:20.878Z,997.67
2023-03-06T08:11:20.886Z,997.61
2023-03-06T08:12:20.873Z,997.62
2023-03-06T08:13:20.847Z,997.60
2023-03-06T08:14:20.823Z,997.64
2023-03-06T08:15:20.820Z,997.66
2023-03-06T08:16:20.855Z,997.65
2023-03-06T08:17:20.821Z,997.67
2023-03-06T08:18:20.778Z,997.62
2023-03-06T08:19:20.774Z,997.69
2023-03-06T08:20:20.779Z,997.66
2023-03-06T08:21:20.751Z,997.75
2023-03-06T08:22:20.774Z,997.71
2023-03-06T08:23:20.759Z,997.71
2023-03-06T08:24:20.748Z,997.71
2023-03-06T08:25:20.720Z,997.71
2023-03-06T08:26:20.695Z,997.70
2023-03-06T08:27:20.699Z,997.76
2023-03-06T08:28:20.664Z,997.74
2023-03-06T08:29:20.666Z,997.78
2023-03-06T08:30:20.644Z,997.74
2023-03-06T08:31:20.661Z,997.74
2023-03-06T08:32:20.680Z,997.75
2023-03-06T08:33:20.616Z,997.73
2023-03-06T08:34:20.594Z,997.78
2023-03-06T08:35:20.620Z,997.75
2023-03-06T08:36:20.604Z,997.78
2023-03-06T08:37:20.616Z,997.80
2023-03-06T08:38:20.552Z,997.78
2023-03-06T08:39:20.545Z,997.75
2023-03-06T08:40:20.530Z,997.84
2023-03-06T08:41:20.532Z,997.85
2023-03-06T08:42:20.531Z,997.83
2023-03-06T08:43:20.520Z,997.80
2023-03-06T08:44:20.483Z,997.84
2023-03-06T08:45:20.589Z,997.86
2023-03-06T08:46:20.472Z,997.87
2023-03-06T08:47:20.475Z,997.82
2023-03-06T08:48:20.441Z,997.80
2023-03-06T08:49:20.438Z,997.79
2023-03-06T08:50:20.418Z,997.78
2023-03-06T08:51:20.411Z,997.77
2023-03-06T08:52:20.415Z,997.80
2023-03-06T08:53:21.581Z,997.79
2023-03-06T08:54:20.524Z,997.78
2023-03-06T08:55:20.370Z,997.79
2023-03-06T08:56:20.354Z,997.81
2023-03-06T08:57:20.337Z,997.78
2023-03-06T08:58:20.330Z,997.75
2023-03-06T08:59:20.336Z,997.77
2023-03-06T09:00:20.368Z,997.74
2023-03-06T09:01:20.325Z,997.71
2023-03-06T09:02:20.291Z,997.80
2023-03-06T09:03:20.267Z,997.75
2023-03-06T09:04:20.288Z,997.78
2023-03-06T09:05:20.244Z,997.81
2023-03-06T09:06:20.253Z,997.81
2023-03-06T09:07:20.225Z,997.82
2023-03-06T09:08:20.227Z,997.73
2023-03-06T09:09:20.230Z,997.75
2023-03-06T09:10:20.283Z,997.70
2023-03-06T09:11:20.176Z,997.73
2023-03-06T09:12:20.172Z,997.74
2023-03-06T09:13:20.152Z,997.76
2023-03-06T09:14:20.202Z,997.72
2023-03-06T09:15:20.143Z,997.75
2023-03-06T09:16:20.146Z,997.75
2023-03-06T09:17:20.147Z,997.75
2023-03-06T09:18:20.102Z,997.72
2023-03-06T09:19:20.085Z,997.74
2023-03-06T09:20:20.122Z,997.78
2023-03-06T09:21:20.084Z,997.75
2023-03-06T09:22:20.061Z,997.77
2023-03-06T09:23:20.046Z,997.79
2023-03-06T09:24:20.044Z,997.74
2023-03-06T09:25:20.020Z,997.80
2023-03-06T09:26:20.038Z,997.75
2023-03-06T09:27:20.001Z,997.73
2023-03-06T09:28:19.993Z,997.76
2023-03-06T09:29:19.984Z,997.71
2023-03-06T09:30:19.971Z,997.75
2023-03-06T09:31:20.049Z,997.76
2023-03-06T09:32:20.002Z,997.77
2023-03-06T09:33:19.931Z,997.77
2023-03-06T09:34:19.934Z,997.81
2023-03-06T09:35:19.950Z,997.76
2023-03-06T09:36:19.927Z,997.78
2023-03-06T09:37:19.901Z,997.71
2023-03-06T09:38:19.939Z,997.74
2023-03-06T09:39:19.871Z,997.72
2023-03-06T09:40:19.868Z,997.77
2023-03-06T09:41:19.870Z,997.70
2023-03-06T09:42:19.860Z,997.74
2023-03-06T09:43:19.834Z,997.73
2023-03-06T09:44:19.818Z,997.72
2023-03-06T09:45:19.804Z,997.72
2023-03-06T09:46:19.824Z,997.74
2023-03-06T09:47:19.783Z,997.75
2023-03-06T09:48:19.805Z,997.77
2023-03-06T09:49:19.760Z,997.74
2023-03-06T09:50:19.751Z,997.74
2023-03-06T09:51:19.739Z,997.71
2023-03-06T09:52:19.723Z,997.73
2023-03-06T09:53:19.715Z,997.72
2023-03-06T09:54:19.742Z,997.73
2023-03-06T09:55:19.696Z,997.71
2023-03-06T09:56:19.694Z,997.70
2023-03-06T09:57:19.684Z,997.74
2023-03-06T09:58:19.657Z,997.74
2023-03-06T09:59:19.680Z,997.74
2023-03-06T10:00:19.632Z,997.78
2023-03-06T10:01:19.638Z,997.72
2023-03-06T10:02:19.671Z,997.71
2023-03-06T10:03:19.642Z,997.71
2023-03-06T10:04:19.598Z,997.71
2023-03-06T10:05:19.611Z,997.70
2023-03-06T10:06:19.597Z,997.73
2023-03-06T10:07:19.883Z,997.70
2023-03-06T10:08:19.544Z,997.76
2023-03-06T10:09:19.528Z,997.77
2023-03-06T10:10:19.527Z,997.79
2023-03-06T10:11:19.542Z,997.70
2023-03-06T10:12:19.496Z,997.77
2023-03-06T10:13:19.483Z,997.75
2023-03-06T10:14:19.482Z,997.73
2023-03-06T10:15:19.489Z,997.73
2023-03-06T10:16:19.481Z,997.74
2023-03-06T10:17:19.437Z,997.72
2023-03-06T10:18:19.437Z,997.73
2023-03-06T10:19:19.412Z,997.75
2023-03-06T10:20:19.421Z,997.68
2023-03-06T10:21:19.687Z,997.71
2023-03-06T10:22:19.416Z,997.68
2023-03-06T10:23:19.370Z,997.67
2023-03-06T10:24:19.365Z,997.71
2023-03-06T10:25:19.348Z,997.68
2023-03-06T10:26:19.434Z,997.71
2023-03-06T10:27:19.381Z,997.66
2023-03-06T10:28:19.322Z,997.67
2023-03-06T10:29:19.360Z,997.72
2023-03-06T10:30:19.298Z,997.66
2023-03-06T10:31:19.296Z,997.71
2023-03-06T10:32:19.363Z,997.65
2023-03-06T10:33:19.279Z,997.69
2023-03-06T10:34:19.257Z,997.70
2023-03-06T10:35:19.304Z,997.65
2023-03-06T10:36:19.226Z,997.70
2023-03-06T10:37:19.234Z,997.71
2023-03-06T10:38:19.204Z,997.73
2023-03-06T10:39:19.193Z,997.69
2023-03-06T10:40:19.202Z,997.72
2023-03-06T10:41:19.164Z,997.67
2023-03-06T10:42:19.162Z,997.70
2023-03-06T10:43:19.177Z,997.67
2023-03-06T10:44:19.140Z,997.71
2023-03-06T10:45:19.139Z,997.69
2023-03-06T10:46:19.280Z,997.69
2023-03-06T10:47:19.205Z,997.72
2023-03-06T10:48:19.131Z,997.72
2023-03-06T10:49:19.085Z,997.67
2023-03-06T10:50:19.080Z,997.73
2023-03-06T10:51:19.327Z,997.71
2023-03-06T10:52:19.106Z,997.70
2023-03-06T10:53:19.049Z,997.69
2023-03-06T10:54:19.077Z,997.64
2023-03-06T10:55:19.008Z,997.63
2023-03-06T10:56:19.015Z,997.65
2023-03-06T10:57:18.992Z,997.66
2023-03-06T10:58:18.997Z,997.66
2023-03-06T10:59:19.028Z,997.69
2023-03-06T11:00:20.461Z,997.71
2023-03-06T11:01:18.988Z,997.67
2023-03-06T11:02:18.934Z,997.66
2023-03-06T11:03:18.935Z,997.66
2023-03-06T11:04:18.953Z,997.66
2023-03-06T11:05:18.899Z,997.65
2023-03-06T11:06:18.938Z,997.62
2023-03-06T11:07:19.012Z,997.62
2023-03-06T11:08:18.868Z,997.58
2023-03-06T11:09:18.977Z,997.63
2023-03-06T11:10:18.971Z,997.61
2023-03-06T11:11:34.987Z,997.61
2023-03-06T11:12:18.836Z,997.62
2023-03-06T11:13:18.810Z,997.60
2023-03-06T11:14:18.829Z,997.62
2023-03-06T11:15:18.784Z,997.59
2023-03-06T11:16:18.859Z,997.63
2023-03-06T11:17:18.761Z,997.62
2023-03-06T11:18:18.759Z,997.61
2023-03-06T11:19:18.749Z,997.62
2023-03-06T11:20:18.808Z,997.64
2023-03-06T11:21:18.720Z,997.63
2023-03-06T11:22:18.715Z,997.64
2023-03-06T11:23:18.698Z,997.62
2023-03-06T11:24:18.691Z,997.66
2023-03-06T11:25:18.730Z,997.60
2023-03-06T11:26:18.668Z,997.60
2023-03-06T11:27:18.649Z,997.61
2023-03-06T11:28:18.647Z,997.61
2023-03-06T11:29:18.732Z,997.63
2023-03-06T11:30:18.640Z,997.62
2023-03-06T11:31:18.636Z,997.60
2023-03-06T11:32:18.647Z,997.55
2023-03-06T11:33:18.610Z,997.56
2023-03-06T11:34:18.568Z,997.59
2023-03-06T11:35:18.571Z,997.57
2023-03-06T11:36:18.558Z,997.58
2023-03-06T11:37:18.530Z,997.56
2023-03-06T11:38:18.521Z,997.50
2023-03-06T11:39:18.507Z,997.56
2023-03-06T11:40:18.534Z,997.55
2023-03-06T11:41:18.612Z,997.54
2023-03-06T11:42:18.487Z,997.56
2023-03-06T11:43:18.458Z,997.52
2023-03-06T11:44:18.453Z,997.53
2023-03-06T11:45:18.442Z,997.49
2023-03-06T11:46:18.488Z,997.51
2023-03-06T11:47:18.416Z,997.49
2023-03-06T11:48:18.420Z,997.50
2023-03-06T11:49:18.392Z,997.51
2023-03-06T11:50:18.389Z,997.56
2023-03-06T11:51:18.440Z,997.50
2023-03-06T11:52:18.365Z,997.47
2023-03-06T11:53:18.352Z,997.48
2023-03-06T11:54:18.345Z,997.43
2023-03-06T11:55:18.332Z,997.45
2023-03-06T11:56:18.344Z,997.41
2023-03-06T11:57:18.305Z,997.35
2023-03-06T11:58:18.295Z,997.39
2023-03-06T11:59:18.284Z,997.36
2023-03-06T12:00:18.280Z,997.34
2023-03-06T12:01:18.299Z,997.43
2023-03-06T12:02:18.269Z,997.41
2023-03-06T12:03:18.238Z,997.43
2023-03-06T12:04:18.234Z,997.43
2023-03-06T12:05:18.341Z,997.47
2023-03-06T12:06:18.210Z,997.48
2023-03-06T12:07:18.224Z,997.48
2023-03-06T12:08:18.190Z,997.45
2023-03-06T12:09:18.175Z,997.45
2023-03-06T12:10:18.166Z,997.41
2023-03-06T12:12:18.155Z,997.40
2023-03-06T12:13:18.150Z,997.42
2023-03-06T12:14:18.116Z,997.41
2023-03-06T12:15:18.104Z,997.38
2023-03-06T12:16:18.139Z,997.42
2023-03-06T12:17:18.082Z,997.40
2023-03-06T12:18:18.101Z,997.42
2023-03-06T12:19:18.054Z,997.39
2023-03-06T12:20:18.045Z,997.37
2023-03-06T12:21:18.048Z,997.40
2023-03-06T12:22:18.026Z,997.44
2023-03-06T12:23:18.009Z,997.41
2023-03-06T12:24:18.036Z,997.38
2023-03-06T12:25:17.996Z,997.40
2023-03-06T12:26:17.980Z,997.38
2023-03-06T12:27:17.962Z,997.34
2023-03-06T12:28:17.963Z,997.36